createdAt,value
2022-10-07T00:01:03.457Z,7.10
2022-10-07T00:06:17.525Z,6.50
2022-10-07T00:11:22.687Z,6.60
2022-10-07T00:16:34.951Z,6.50
2022-10-07T00:21:39.212Z,6.40
2022-10-07T00:26:41.855Z,6.50
2022-10-07T00:31:44.304Z,6.30
2022-10-07T00:36:46.859Z,6.20
2022-10-07T00:41:52.721Z,6.30
2022-10-07T00:46:55.828Z,6.30
2022-10-07T00:51:58.536Z,6.20
2022-10-07T00:57:01.034Z,6.10
2022-10-07T01:02:03.961Z,6.10
2022-10-07T01:07:06.481Z,6.10
2022-10-07T01:12:44.834Z,6.30
2022-10-07T01:18:08.538Z,5.90
2022-10-07T01:23:20.816Z,6.00
2022-10-07T01:28:56.616Z,6.00
2022-10-07T01:34:00.427Z,5.90
2022-10-07T01:39:08.069Z,6.10
2022-10-07T01:44:12.546Z,6.00
2022-10-07T01:49:15.199Z,6.00
2022-10-07T01:54:40.963Z,6.10
2022-10-07T01:59:51.331Z,5.90
2022-10-07T02:05:24.095Z,5.80
2022-10-07T02:10:48.481Z,5.60
2022-10-07T02:16:12.461Z,5.60
2022-10-07T02:21:16.622Z,5.50
2022-10-07T02:26:22.118Z,5.60
2022-10-07T02:31:30.380Z,5.40
2022-10-07T02:36:41.299Z,5.30
2022-10-07T02:42:10.007Z,5.30
2022-10-07T02:47:22.206Z,5.20
2022-10-07T02:52:26.146Z,5.30
2022-10-07T02:57:33.543Z,5.30
2022-10-07T03:02:46.219Z,5.20
2022-10-07T03:07:52.409Z,5.20
2022-10-07T03:12:57.254Z,5.20
2022-10-07T03:18:00.090Z,5.10
2022-10-07T03:23:04.855Z,5.10
2022-10-07T03:28:08.485Z,5.00
2022-10-07T03:33:11.269Z,5.00
2022-10-07T03:38:14.091Z,5.10
2022-10-07T03:43:16.840Z,5.00
2022-10-07T03:48:20.172Z,5.00
2022-10-07T03:53:23.757Z,5.00
2022-10-07T03:58:26.239Z,4.80
2022-10-07T04:03:29.000Z,4.90
2022-10-07T04:08:33.059Z,4.70
2022-10-07T04:13:37.303Z,4.70
2022-10-07T04:18:43.909Z,4.80
2022-10-07T04:23:47.024Z,4.80
2022-10-07T04:28:50.203Z,4.90
2022-10-07T04:33:58.346Z,4.70
2022-10-07T04:39:06.621Z,4.70
2022-10-07T04:44:12.305Z,4.70
2022-10-07T04:49:22.726Z,4.80
2022-10-07T04:54:26.132Z,4.70
2022-10-07T04:59:32.588Z,4.70
2022-10-07T05:04:37.153Z,4.60
2022-10-07T05:09:39.828Z,4.60
2022-10-07T05:14:43.178Z,4.60
2022-10-07T05:19:47.309Z,4.60
2022-10-07T05:24:49.834Z,4.50
2022-10-07T05:29:52.484Z,4.60
2022-10-07T05:34:56.102Z,4.70
2022-10-07T05:39:58.812Z,4.70
2022-10-07T05:45:05.265Z,4.70
2022-10-07T05:50:09.933Z,5.30
2022-10-07T05:55:13.980Z,4.90
2022-10-07T06:00:16.793Z,4.90
2022-10-07T06:05:25.099Z,5.10
2022-10-07T06:10:46.505Z,5.30
2022-10-07T06:15:49.363Z,5.40
2022-10-07T06:21:00.413Z,5.80
2022-10-07T06:26:09.697Z,6.00
2022-10-07T06:31:17.646Z,6.50
2022-10-07T06:36:20.729Z,6.70
2022-10-07T06:41:26.799Z,7.30
2022-10-07T06:46:42.400Z,7.70
2022-10-07T06:51:55.581Z,7.90
2022-10-07T06:56:58.689Z,8.20
2022-10-07T07:02:01.862Z,8.50
2022-10-07T07:07:08.158Z,8.70
2022-10-07T07:12:11.198Z,9.00
2022-10-07T07:17:20.894Z,9.40
2022-10-07T07:22:24.031Z,9.70
2022-10-07T07:27:26.682Z,10.00
2022-10-07T07:32:30.323Z,10.40
2022-10-07T07:37:45.256Z,10.80
2022-10-07T07:48:43.805Z,11.40
2022-10-07T07:53:50.263Z,11.80
2022-10-07T07:58:58.486Z,12.20
2022-10-07T08:04:18.133Z,12.50
2022-10-07T08:09:25.895Z,12.70
2022-10-07T08:14:30.359Z,12.90
2022-10-07T08:19:55.971Z,13.40
2022-10-07T08:25:22.899Z,13.70
2022-10-07T08:30:59.143Z,13.90
2022-10-07T08:37:12.339Z,14.20
2022-10-07T08:42:46.383Z,14.20
2022-10-07T08:47:58.833Z,14.40
2022-10-07T08:53:20.637Z,14.90
2022-10-07T08:58:50.309Z,15.10
2022-10-07T09:03:56.070Z,15.40
2022-10-07T09:09:04.577Z,15.30
2022-10-07T09:14:26.414Z,15.40
2022-10-07T09:19:44.085Z,15.60
2022-10-07T09:24:49.353Z,15.80
2022-10-07T09:29:51.936Z,16.00
2022-10-07T09:34:54.341Z,16.20
2022-10-07T09:40:30.576Z,16.40
2022-10-07T09:45:33.593Z,16.40
2022-10-07T09:50:42.163Z,16.40
2022-10-07T09:55:49.821Z,16.60
2022-10-07T10:00:55.536Z,16.60
2022-10-07T10:06:04.253Z,16.60
2022-10-07T10:11:20.056Z,16.80
2022-10-07T10:16:26.090Z,17.10
2022-10-07T10:21:32.685Z,17.20
2022-10-07T10:27:09.535Z,17.30
2022-10-07T10:32:37.068Z,17.30
2022-10-07T10:37:58.352Z,17.30
2022-10-07T10:43:20.378Z,17.40
2022-10-07T10:48:31.595Z,17.20
2022-10-07T10:54:04.789Z,17.40
2022-10-07T10:59:37.735Z,17.60
2022-10-07T11:04:52.364Z,17.50
2022-10-07T11:09:59.990Z,17.70
2022-10-07T11:15:15.903Z,17.80
2022-10-07T11:20:27.507Z,17.80
2022-10-07T11:25:37.697Z,17.90
2022-10-07T11:30:48.896Z,17.90
2022-10-07T11:36:03.390Z,18.00
2022-10-07T11:41:24.575Z,18.10
2022-10-07T11:46:36.408Z,18.10
2022-10-07T11:51:50.597Z,17.90
2022-10-07T11:57:00.423Z,17.90
2022-10-07T12:02:03.308Z,18.00
2022-10-07T12:07:37.129Z,18.10
2022-10-07T12:12:43.163Z,18.00
2022-10-07T12:18:06.069Z,18.10
2022-10-07T12:23:22.311Z,18.20
2022-10-07T12:28:46.104Z,18.10
2022-10-07T12:34:09.520Z,18.30
2022-10-07T12:39:11.935Z,18.40
2022-10-07T12:44:31.213Z,18.20
2022-10-07T12:49:50.360Z,18.40
2022-10-07T12:55:19.469Z,18.30
2022-10-07T13:00:24.708Z,18.30
2022-10-07T13:05:54.942Z,18.30
2022-10-07T13:11:31.149Z,18.20
2022-10-07T13:17:00.609Z,18.30
2022-10-07T13:22:13.285Z,18.30
2022-10-07T13:27:20.023Z,18.10
2022-10-07T13:32:30.192Z,18.00
2022-10-07T13:37:38.347Z,18.00
2022-10-07T13:42:40.888Z,17.90
2022-10-07T13:47:45.613Z,17.80
2022-10-07T13:52:49.853Z,17.80
2022-10-07T13:57:54.896Z,17.70
2022-10-07T14:02:59.194Z,17.60
2022-10-07T14:08:16.310Z,17.50
2022-10-07T14:13:19.173Z,17.40
2022-10-07T14:18:22.084Z,17.30
2022-10-07T14:23:32.817Z,17.30
2022-10-07T14:28:39.537Z,17.10
2022-10-07T14:34:03.530Z,17.10
2022-10-07T14:39:23.627Z,17.10
2022-10-07T14:44:26.259Z,17.20
2022-10-07T14:49:28.755Z,17.20
2022-10-07T14:54:32.219Z,17.20
2022-10-07T14:59:35.488Z,17.10
2022-10-07T15:04:38.041Z,16.90
2022-10-07T15:09:41.373Z,16.80
2022-10-07T15:14:43.888Z,16.70
2022-10-07T15:19:46.376Z,16.70
2022-10-07T15:25:10.845Z,16.50
2022-10-07T15:30:13.685Z,16.40
2022-10-07T15:35:16.279Z,16.30
2022-10-07T15:40:18.743Z,16.20
2022-10-07T15:45:21.120Z,16.00
2022-10-07T15:50:23.570Z,15.90
2022-10-07T15:55:25.984Z,15.70
2022-10-07T16:00:28.415Z,15.50
2022-10-07T16:05:31.399Z,15.30
2022-10-07T16:10:37.270Z,15.10
2022-10-07T16:15:39.851Z,14.90
2022-10-07T16:20:42.421Z,14.70
2022-10-07T16:25:44.809Z,14.50
2022-10-07T16:30:51.255Z,14.30
2022-10-07T16:35:53.753Z,14.10
2022-10-07T16:40:56.149Z,13.90
2022-10-07T16:46:03.116Z,13.70
2022-10-07T16:51:13.570Z,13.50
2022-10-07T16:56:20.535Z,13.40
2022-10-07T17:01:23.389Z,13.20
2022-10-07T17:06:27.803Z,13.10
2022-10-07T17:11:33.269Z,12.90
2022-10-07T17:16:39.010Z,12.80
2022-10-07T17:21:42.392Z,12.70
2022-10-07T17:26:45.959Z,12.50
2022-10-07T17:31:50.697Z,12.50
2022-10-07T17:36:54.332Z,12.30
2022-10-07T17:41:57.516Z,12.20
2022-10-07T17:47:03.567Z,12.10
2022-10-07T17:52:06.079Z,12.00
2022-10-07T17:57:08.472Z,11.90
2022-10-07T18:02:10.906Z,11.90
2022-10-07T18:07:14.302Z,11.90
2022-10-07T18:12:35.280Z,11.80
2022-10-07T18:17:37.676Z,11.80
2022-10-07T18:22:40.075Z,11.80
2022-10-07T18:27:43.622Z,11.70
2022-10-07T18:32:46.316Z,11.60
2022-10-07T18:37:51.697Z,11.60
2022-10-07T18:42:54.170Z,11.50
2022-10-07T18:47:56.587Z,11.40
2022-10-07T18:53:00.727Z,11.30
2022-10-07T18:58:03.072Z,11.30
2022-10-07T19:03:05.412Z,11.20
2022-10-07T19:08:08.004Z,11.10
2022-10-07T19:13:32.513Z,11.00
2022-10-07T19:18:35.494Z,10.90
2022-10-07T19:23:38.562Z,10.90
2022-10-07T19:28:41.599Z,10.90
2022-10-07T19:33:45.720Z,10.70
2022-10-07T19:38:53.654Z,10.90
2022-10-07T19:43:57.007Z,10.80
2022-10-07T19:49:01.459Z,10.60
2022-10-07T19:54:10.106Z,10.70
2022-10-07T19:59:14.237Z,10.60
2022-10-07T20:04:20.796Z,10.60
2022-10-07T20:09:23.358Z,10.50
2022-10-07T20:14:25.878Z,10.40
2022-10-07T20:19:28.375Z,10.40
2022-10-07T20:24:30.837Z,10.30
2022-10-07T20:29:53.208Z,10.40
2022-10-07T20:35:17.889Z,10.30
2022-10-07T20:40:39.279Z,10.30
2022-10-07T20:45:56.787Z,10.40
2022-10-07T20:51:08.435Z,10.50
2022-10-07T20:56:10.973Z,10.60
2022-10-07T21:01:13.821Z,10.80
2022-10-07T21:06:18.666Z,10.80
2022-10-07T21:11:21.263Z,10.80
2022-10-07T21:16:26.539Z,10.80
2022-10-07T21:21:29.465Z,10.70
2022-10-07T21:26:31.950Z,10.60
2022-10-07T21:31:35.825Z,10.60
2022-10-07T21:36:41.122Z,10.60
2022-10-07T21:41:47.925Z,10.50
2022-10-07T21:47:01.329Z,10.50
2022-10-07T21:52:03.782Z,10.60
2022-10-07T21:57:06.250Z,10.60
2022-10-07T22:02:08.759Z,10.60
2022-10-07T22:07:30.772Z,10.60
2022-10-07T22:12:33.275Z,10.50
2022-10-07T22:17:35.740Z,10.40
2022-10-07T22:22:38.148Z,10.50
2022-10-07T22:27:40.604Z,10.40
2022-10-07T22:32:43.021Z,10.20
2022-10-07T22:37:45.505Z,10.20
2022-10-07T22:42:48.350Z,10.20
2022-10-07T22:47:50.964Z,10.10
2022-10-07T22:52:56.242Z,10.10
2022-10-07T22:58:02.039Z,10.00
2022-10-07T23:03:05.680Z,9.90
2022-10-07T23:08:08.195Z,9.90
2022-10-07T23:13:10.548Z,10.10
2022-10-07T23:18:12.927Z,10.00
2022-10-07T23:23:15.315Z,10.10
2022-10-07T23:28:18.437Z,10.20
2022-10-07T23:33:20.883Z,10.10
2022-10-07T23:38:26.358Z,10.10
2022-10-07T23:43:33.303Z,10.20
2022-10-07T23:48:35.878Z,10.20
2022-10-07T23:53:38.835Z,10.30
2022-10-07T23:58:41.505Z,10.20
